Time;durP1;ratioP1;P1;durP2;ratioP2;P2;SDS_P1;SDS_P2;PMS_P1;PMS_P2;Temp;Humidity;BMP_temperature;BMP_pressure;BME280_temperature;BME280_humidity;BME280_pressure;Samples;Min_cycle;Max_cycle;Signal;HPM_P1;HPM_P2
2023/07/20 00:01:17;;;;;;;;;0.00;0.00;;;;;25.66;63.69;101568.22;5000211;28;45850;-68
2023/07/20 00:03:43;;;;;;;;;1.00;0.00;;;;;25.64;63.91;101572.97;5012680;28;48184;-68
2023/07/20 00:06:08;;;;;;;;;0.00;0.00;;;;;25.61;63.77;101566.00;5007022;28;45538;-68
2023/07/20 00:08:34;;;;;;;;;0.00;0.00;;;;;25.61;64.00;101562.44;4999866;28;45454;-68
2023/07/20 00:10:59;;;;;;;;;0.00;0.00;;;;;25.63;63.83;101568.53;5001083;28;45174;-67
2023/07/20 00:13:24;;;;;;;;;0.00;0.00;;;;;25.62;63.79;101574.97;5010476;28;45564;-68
2023/07/20 00:15:51;;;;;;;;;0.00;0.00;;;;;25.61;63.93;101575.97;5009361;28;45396;-68
2023/07/20 00:18:17;;;;;;;;;0.00;0.00;;;;;25.60;63.89;101568.84;5005421;28;45417;-68
2023/07/20 00:20:42;;;;;;;;;0.00;0.00;;;;;25.58;63.86;101573.56;5004494;28;45498;-68
2023/07/20 00:23:08;;;;;;;;;0.00;0.00;;;;;25.59;63.43;101570.69;5009774;28;45261;-68
2023/07/20 00:25:33;;;;;;;;;0.00;0.00;;;;;25.59;63.91;101578.00;5011624;28;45481;-68
2023/07/20 00:27:59;;;;;;;;;0.00;0.00;;;;;25.58;63.91;101582.56;5001637;28;45409;-68
2023/07/20 00:30:24;;;;;;;;;0.00;0.00;;;;;25.57;63.74;101578.13;5007074;28;45445;-68
2023/07/20 00:32:50;;;;;;;;;0.00;0.00;;;;;25.53;63.83;101579.44;5005043;28;45638;-68
2023/07/20 00:35:15;;;;;;;;;0.00;0.00;;;;;25.55;64.09;101579.28;5003217;28;45377;-68
2023/07/20 00:37:40;;;;;;;;;0.00;0.00;;;;;25.47;63.86;101568.31;5012245;28;45510;-68
2023/07/20 00:40:07;;;;;;;;;0.00;0.00;;;;;25.53;63.93;101578.56;5004001;28;45268;-68
2023/07/20 00:42:33;;;;;;;;;0.00;0.00;;;;;25.50;63.85;101570.75;5002997;28;45308;-68
2023/07/20 00:44:58;;;;;;;;;0.00;0.00;;;;;25.52;63.97;101579.59;5003743;28;45438;-68
2023/07/20 00:47:24;;;;;;;;;0.00;0.00;;;;;25.50;64.06;101574.31;5003529;28;45302;-68
2023/07/20 00:49:51;;;;;;;;;0.00;0.00;;;;;25.49;63.90;101571.75;5001642;28;45173;-68
2023/07/20 00:52:17;;;;;;;;;0.00;0.00;;;;;25.38;63.89;101553.81;5005076;28;46073;-68
2023/07/20 00:54:43;;;;;;;;;0.00;0.00;;;;;25.46;64.04;101566.63;5008837;28;45438;-68
2023/07/20 00:57:09;;;;;;;;;0.00;0.00;;;;;25.48;63.98;101568.16;5015560;28;45447;-68
2023/07/20 00:59:35;;;;;;;;;0.00;0.00;;;;;25.38;64.15;101560.09;5002474;28;45261;-68
2023/07/20 01:02:01;;;;;;;;;0.00;0.00;;;;;25.47;64.08;101563.75;5007964;28;46359;-68
2023/07/20 01:04:28;;;;;;;;;0.00;0.00;;;;;25.46;63.91;101566.63;5003211;28;45388;-68
2023/07/20 01:07:07;;;;;;;;;0.00;0.00;;;;;25.46;63.98;101574.75;5001187;28;45308;-68
2023/07/20 01:10:15;;;;;;;;;0.00;0.00;;;;;25.44;63.93;101561.34;5000253;28;46244;-68
2023/07/20 01:12:42;;;;;;;;;0.00;0.00;;;;;25.44;63.99;101566.75;4994379;28;45474;-68
2023/07/20 01:15:09;;;;;;;;;0.00;0.00;;;;;25.42;64.15;101564.19;5001498;28;45398;-68
2023/07/20 01:17:35;;;;;;;;;0.00;0.00;;;;;25.42;64.12;101566.88;5002483;28;45392;-68
2023/07/20 01:20:01;;;;;;;;;0.00;0.00;;;;;25.42;64.25;101559.78;5006618;28;45653;-68
2023/07/20 01:22:58;;;;;;;;;0.00;0.00;;;;;25.41;64.18;101558.94;5026616;28;45560;-68
2023/07/20 01:25:55;;;;;;;;;0.00;0.00;;;;;25.41;64.00;101556.22;5006335;28;45459;-68
2023/07/20 01:28:37;;;;;;;;;0.00;0.00;;;;;25.39;64.24;101559.06;5005479;28;47082;-68
2023/07/20 01:31:20;;;;;;;;;0.00;0.00;;;;;25.38;64.15;101549.25;5012011;28;45241;-68
2023/07/20 01:33:48;;;;;;;;;0.00;0.00;;;;;25.36;63.84;101556.66;5017313;28;45355;-68
2023/07/20 01:36:16;;;;;;;;;0.00;0.00;;;;;25.36;64.28;101548.53;5006459;28;45627;-68
2023/07/20 01:38:42;;;;;;;;;0.00;0.00;;;;;25.37;64.11;101549.38;5007071;28;45489;-68
2023/07/20 01:41:08;;;;;;;;;0.00;0.00;;;;;25.35;64.35;101549.56;5001291;28;45376;-68
2023/07/20 01:43:34;;;;;;;;;0.00;0.00;;;;;25.34;63.91;101538.88;5001404;28;46074;-68
2023/07/20 01:45:59;;;;;;;;;0.00;0.00;;;;;25.36;64.35;101548.53;5005156;28;45443;-69
2023/07/20 01:48:24;;;;;;;;;0.00;0.00;;;;;25.34;64.34;101545.13;5018917;28;45638;-68
2023/07/20 01:50:50;;;;;;;;;0.00;0.00;;;;;25.34;64.41;101549.69;5010067;28;45491;-68
2023/07/20 01:53:15;;;;;;;;;0.00;0.00;;;;;25.33;63.94;101543.41;5007037;28;46165;-68
2023/07/20 01:55:40;;;;;;;;;0.00;0.00;;;;;25.32;64.45;101539.03;5006660;28;45173;-68
2023/07/20 01:58:06;;;;;;;;;0.00;0.00;;;;;25.31;64.57;101531.91;5011549;28;45228;-68
2023/07/20 02:00:32;;;;;;;;;0.00;0.00;;;;;25.31;64.33;101545.44;5006053;28;45408;-68
2023/07/20 02:02:57;;;;;;;;;0.00;0.00;;;;;25.28;64.27;101532.19;5013740;28;46559;-68
2023/07/20 02:05:22;;;;;;;;;0.00;0.00;;;;;25.30;64.46;101532.03;5007020;28;45460;-68
2023/07/20 02:07:48;;;;;;;;;0.00;0.00;;;;;25.30;64.31;101532.88;5001650;28;45479;-69
2023/07/20 02:10:13;;;;;;;;;0.00;0.00;;;;;25.27;64.53;101530.47;5001948;28;45452;-68
2023/07/20 02:12:39;;;;;;;;;0.00;0.00;;;;;25.29;64.29;101546.59;5003765;28;45406;-68
2023/07/20 02:15:05;;;;;;;;;0.00;0.00;;;;;25.26;64.40;101528.75;5005553;28;45329;-68
2023/07/20 02:17:30;;;;;;;;;0.00;0.00;;;;;25.25;64.58;101528.94;5007624;28;45407;-68
2023/07/20 02:19:57;;;;;;;;;0.00;0.00;;;;;25.25;64.48;101532.50;5001247;28;45390;-68
2023/07/20 02:22:23;;;;;;;;;1.00;0.00;;;;;25.26;64.55;101534.19;5005579;28;46308;-68
2023/07/20 02:24:49;;;;;;;;;0.00;0.00;;;;;25.25;64.27;101523.53;5006595;28;45526;-68
2023/07/20 02:27:14;;;;;;;;;0.00;0.00;;;;;25.25;64.49;101537.91;5007623;28;45263;-68
2023/07/20 02:29:41;;;;;;;;;0.00;0.00;;;;;25.26;64.45;101528.75;5014250;28;45481;-68
2023/07/20 02:32:07;;;;;;;;;0.00;0.00;;;;;25.24;64.67;101525.38;5007804;28;45542;-68
2023/07/20 02:34:33;;;;;;;;;0.00;0.00;;;;;25.24;64.50;101528.06;5003163;28;45677;-68
2023/07/20 02:37:00;;;;;;;;;0.00;0.00;;;;;25.21;64.63;101531.09;5001308;28;45286;-68
2023/07/20 02:39:29;;;;;;;;;0.00;0.00;;;;;25.22;64.56;101527.38;5001392;28;45490;-68
2023/07/20 02:41:54;;;;;;;;;0.00;0.00;;;;;25.23;64.63;101533.63;5004205;28;46694;-68
2023/07/20 02:44:20;;;;;;;;;0.00;0.00;;;;;25.22;64.83;101535.50;5006077;28;45230;-68
2023/07/20 02:46:46;;;;;;;;;0.00;0.00;;;;;25.22;64.39;101531.94;5004507;28;45285;-68
2023/07/20 02:49:12;;;;;;;;;0.00;0.00;;;;;25.21;64.64;101531.09;4999986;28;45261;-68
2023/07/20 02:51:37;;;;;;;;;0.00;0.00;;;;;25.17;64.77;101539.63;5004364;28;45366;-68
2023/07/20 02:54:03;;;;;;;;;1.00;0.00;;;;;25.21;64.91;101541.06;5010403;28;45221;-68
2023/07/20 02:56:28;;;;;;;;;0.00;0.00;;;;;25.18;64.77;101542.22;4999862;28;45261;-68
2023/07/20 02:58:54;;;;;;;;;0.00;0.00;;;;;25.19;64.91;101543.94;5008080;28;45390;-68
2023/07/20 03:01:19;;;;;;;;;0.00;0.00;;;;;25.19;64.88;101538.50;5003241;28;45969;-68
2023/07/20 03:03:47;;;;;;;;;0.00;0.00;;;;;25.18;64.88;101535.94;5012416;28;45416;-68
2023/07/20 03:06:14;;;;;;;;;0.00;0.00;;;;;25.15;64.82;101537.09;5010303;28;45448;-68
2023/07/20 03:08:48;;;;;;;;;0.00;0.00;;;;;25.17;64.77;101534.22;5004972;28;45308;-68
2023/07/20 03:11:15;;;;;;;;;0.00;0.00;;;;;25.15;64.74;101528.13;5014488;28;46481;-68
2023/07/20 03:13:42;;;;;;;;;0.00;0.00;;;;;25.16;64.97;101529.84;5000480;28;45441;-68
2023/07/20 03:16:10;;;;;;;;;0.00;0.00;;;;;25.08;64.81;101519.75;4999268;28;45448;-68
2023/07/20 03:18:37;;;;;;;;;0.00;0.00;;;;;25.09;64.67;101515.19;5000383;28;45501;-68
2023/07/20 03:21:03;;;;;;;;;0.00;0.00;;;;;25.15;64.77;101536.25;5010636;28;45457;-68
2023/07/20 03:23:28;;;;;;;;;0.00;0.00;;;;;25.15;64.89;101538.94;5006652;28;45361;-68
2023/07/20 03:25:55;;;;;;;;;0.00;0.00;;;;;25.13;64.91;101522.00;5003459;28;45213;-68
2023/07/20 03:28:20;;;;;;;;;0.00;0.00;;;;;25.11;64.99;101530.25;5024724;28;45557;-68
2023/07/20 03:30:46;;;;;;;;;0.00;0.00;;;;;25.10;64.69;101527.69;4999524;28;45186;-68
2023/07/20 03:33:11;;;;;;;;;0.00;0.00;;;;;25.11;64.93;101538.38;4999798;28;45418;-68
2023/07/20 03:35:37;;;;;;;;;0.00;0.00;;;;;25.11;64.87;101538.38;5004151;28;45279;-68
2023/07/20 03:38:02;;;;;;;;;0.00;0.00;;;;;25.12;64.79;101533.84;5002090;28;45574;-68
2023/07/20 03:40:28;;;;;;;;;0.00;0.00;;;;;25.11;65.00;101532.13;5000563;28;45322;-68
2023/07/20 03:42:53;;;;;;;;;0.00;0.00;;;;;25.02;65.10;101527.59;5008433;28;45295;-68
2023/07/20 03:45:19;;;;;;;;;0.00;0.00;;;;;25.12;64.91;101539.25;4999066;28;45242;-68
2023/07/20 03:47:44;;;;;;;;;0.00;0.00;;;;;25.10;64.92;101542.09;4999374;28;45461;-68
2023/07/20 03:50:10;;;;;;;;;0.00;0.00;;;;;25.10;65.18;101544.78;5011783;28;45390;-68
2023/07/20 03:52:36;;;;;;;;;0.00;0.00;;;;;25.07;64.97;101538.81;5000979;28;45549;-68
2023/07/20 03:55:01;;;;;;;;;0.00;0.00;;;;;25.10;64.81;101550.22;5008214;28;45439;-68
2023/07/20 03:57:27;;;;;;;;;0.00;0.00;;;;;25.09;65.11;101542.25;5006011;28;45291;-68
2023/07/20 03:59:52;;;;;;;;;0.00;0.00;;;;;25.08;64.88;101538.69;5003556;28;46000;-68
2023/07/20 04:02:18;;;;;;;;;0.00;0.00;;;;;25.05;65.01;101538.97;5007450;28;45224;-68
2023/07/20 04:04:44;;;;;;;;;0.00;0.00;;;;;25.06;64.92;101538.00;5008387;28;45429;-69
2023/07/20 04:07:09;;;;;;;;;0.00;0.00;;;;;25.06;65.12;101540.69;5006467;28;45302;-68
2023/07/20 04:09:34;;;;;;;;;0.00;0.00;;;;;25.06;65.08;101538.00;5005096;28;45477;-69
2023/07/20 04:12:00;;;;;;;;;0.00;0.00;;;;;25.06;65.09;101534.44;5005577;28;45677;-64
2023/07/20 04:14:25;;;;;;;;;0.00;0.00;;;;;24.94;64.71;101522.91;5011513;28;45451;-70
2023/07/20 04:16:51;;;;;;;;;0.00;0.00;;;;;25.06;64.51;101534.44;5004140;28;45255;-65
2023/07/20 04:19:17;;;;;;;;;0.00;0.00;;;;;25.05;64.32;101536.28;5004704;28;47074;-62
2023/07/20 04:21:43;;;;;;;;;0.00;0.00;;;;;25.03;64.17;101535.56;5006849;28;46549;-63
2023/07/20 04:24:08;;;;;;;;;0.00;0.00;;;;;24.96;63.80;101511.94;5012327;28;45198;-64
2023/07/20 04:26:34;;;;;;;;;0.00;0.00;;;;;25.02;63.83;101531.16;5003770;28;45421;-66
2023/07/20 04:28:59;;;;;;;;;0.00;0.00;;;;;25.03;63.58;101530.13;5019292;28;45332;-68
2023/07/20 04:31:25;;;;;;;;;0.00;0.00;;;;;24.93;62.96;101512.25;5006003;28;45470;-66
2023/07/20 04:33:51;;;;;;;;;0.00;0.00;;;;;25.01;63.12;101521.31;5011874;28;45269;-67
2023/07/20 04:36:19;;;;;;;;;0.00;0.00;;;;;25.00;63.12;101522.31;5004997;28;45424;-68
2023/07/20 04:38:45;;;;;;;;;0.00;0.00;;;;;24.98;62.85;101521.63;5002155;28;45318;-68
2023/07/20 04:41:14;;;;;;;;;0.00;0.00;;;;;24.96;62.70;101523.63;5010669;28;45320;-67
2023/07/20 04:43:43;;;;;;;;;0.00;0.00;;;;;24.97;62.60;101528.03;5008503;28;45185;-66
2023/07/20 04:46:12;;;;;;;;;0.00;0.00;;;;;24.94;62.63;101522.06;5005505;28;45272;-66
2023/07/20 04:48:37;;;;;;;;;0.00;0.00;;;;;24.94;62.44;101527.47;5014312;28;48554;-66
2023/07/20 04:51:03;;;;;;;;;0.00;0.00;;;;;24.92;62.51;101524.94;5009929;28;45422;-66
